Airfield :
LOGIN :

Register | Disclaimer

   EN    FR    IT 

 










Legend :    VFR   Marginal VFR   IFR   Intensive IFR   Very Intensive IFR
Visi :
Ceiling :
>= 8 km
>= 3000ft
5 to 8 km
1000 to 3000 ft
1500m to 5 km
500 to 1000 ft
800 to 1500m
200 to 500 ft
< 800m
< 200 ft
Symbols :   Thunderstorms  Fog  Heavy snow  Heavy precipitations  Wind > 20 kt
SIGMETs :     Misc.  Thunderstorms  Icing  Turbulence  Mountain Waves  Volcanic Ashes






- Airport Elevation : 697 ft
- IATA code : PEG


LIRZ - San Edigio Perugia

CURRENT METAR :
  • 280720Z AUTO 24004KT 160V320 //// // SCT003/// 04/04 Q1017

EXPIRED METARs :
  • 280650Z AUTO 29002KT //// R01/0450N // OVC001 03/03 Q1017
  • 280620Z AUTO VRB01KT //// R01/0350N // VV002 03/03 Q1017
  • 280550Z AUTO 15002KT //// R01/0400N // VV002 03/03 Q1017
  • 280520Z AUTO 12004KT //// R01/0400U // VV002 03/03 Q1017
  • 280450Z AUTO 24004KT //// R01/0450U // VV002 03/03 Q1017

TAF TAF LIRZ
Valid from the 28 at 06:00 until the 29 at 06:00 UTC


280500Z 2806/2906 VRB05KT 6000 SCT030
TEMPO 2806/2808 4000 BR
TEMPO 2902/2906 4000 RA



MET'MAP, your aeronautical weather chart ! - Copyright ORBIFLY December 2007 - Disclaimer

ORBIFLY MET'MAP TEAM :

Programming & Development : Alexandra Zaïnal
Concept & original design : Baudouin d'Aumeries
Assistance for programming : Marc-Olivier Méhu
Technical & hardware support : Manuel Goepfert

Contact : metmap@orbifly.com




SOURCES & CREDITS :

   NOAA